Track Степанова Екатерина

Time Latitude Longitude Accuracy (66% radius in meters) Altitude (meters) Speed (km/hour) Bearing (degrees) Battery (%) GPS flag
11:16:14 60.372302 29.557727 24 57 3.3384876251221 24.859910964966 44 0 delete
11:16:02 60.372302 29.557727 24 57 3.3384876251221 24.859910964966 44 0 delete
10:15:43 60.372332 29.557756 24 57 3.3384876251221 24.859910964966 44 1 delete
10:15:42 60.372302 29.557727 24 57 3.3384876251221 24.859910964966 44 1 delete
10:15:40 60.372241 29.557666 24 60 3.2972605228424 23.361309051514 44 1 delete
10:15:38 60.372177 29.557603 24 60 3.206887960434 22.647241592407 44 1 delete
10:15:36 60.372112 29.557549 24 60 3.1126701831818 25.792415618896 44 1 delete
10:15:34 60.372051 29.557489 24 60 3.0392134189606 28.720739364624 44 1 delete
10:15:32 60.371989 29.557413 24 55 2.9477541446686 30.052419662476 44 1 delete
10:15:30 60.371935 29.557332 24 56 2.8858931064606 28.448013305664 44 1 delete
10:15:28 60.371883 29.557254 24 48 2.8507661819458 27.034587860107 44 1 delete
10:15:25 60.371830 29.557185 24 16 2.8399233818054 24.834831237793 44 1 delete
10:15:22 60.371785 29.557133 24 17 2.823460817337 23.785692214966 44 1 delete
10:15:19 60.371741 29.557087 32 24 2.7997581958771 22.678823471069 44 1 delete
10:15:18 60.371720 29.557067 24 26 2.7731993198395 22.741504669189 44 1 delete
10:15:17 60.371698 29.557048 24 25 2.7423241138458 22.867641448975 44 1 delete
10:15:15 60.371652 29.557007 24 23 2.6714131832123 21.848743438721 44 1 delete
10:15:13 60.371606 29.556972 24 26 2.5959718227386 23.367248535156 44 1 delete
10:15:11 60.371567 29.556920 24 26 2.5032858848572 22.931198120117 44 1 delete
10:15:09 60.371530 29.556864 24 29 2.4291710853577 25.237274169922 44 1 delete
10:15:07 60.371479 29.556800 24 32 2.2318198680878 23.736558914185 44 1 delete
10:15:05 60.371418 29.556728 24 34 1.9622772932053 20.543790817261 44 1 delete
10:15:03 60.371354 29.556653 24 30 1.6728516817093 16.931171417236 44 1 delete
10:15:02 60.371329 29.556617 24 29 1.5931944847107 11.272393226624 44 1 delete
10:15:01 60.371304 29.556603 24 30 1.539696931839 11.96221446991 44 1 delete
10:14:59 60.371259 29.556559 24 31 1.4588626623154 10.108280181885 44 1 delete
10:14:57 60.371214 29.556509 24 33 1.3648153543472 5.8515357971191 44 1 delete
10:14:54 60.371154 29.556473 16 36 1.2246794700623 3.0077538490295 44 1 delete
10:14:51 60.371090 29.556442 16 39 1.0441465377808 352.52493286133 44 1 delete
10:14:49 60.371044 29.556439 16 39 0.8870934844017 351.64956665039 44 1 delete
10:14:46 60.370981 29.556427 16 42 0.65475231409073 2.5897436141968 44 1 delete
10:14:43 60.370931 29.556393 16 47 0.49338388442993 353.05654907227 44 1 delete
10:14:40 60.370875 29.556371 16 49 0.28082999587059 345.75415039062 44 1 delete
10:14:37 60.370811 29.556367 24 50 0 350.94485473633 44 1 delete
10:14:33 60.370763 29.556342 24 61 0 350.94485473633 44 1 delete
10:14:30 60.370717 29.556294 32 69 0 350.94485473633 44 1 delete
10:14:28 60.370673 29.556235 32 80 0 350.94485473633 44 1 delete
10:14:26 60.370625 29.556135 32 88 0 350.94485473633 44 1 delete
10:14:23 60.370591 29.556067 16 103 0 350.94485473633 44 1 delete
10:14:22 60.370582 29.556061 16 103 0 358.55606079102 44 1 delete
10:14:15 60.370537 29.556053 24 97 0 154.79046630859 44 1 delete
10:14:10 60.370485 29.556068 16 88 0 154.79046630859 44 1 delete
10:14:04 60.370412 29.556070 32 115 0 150.0074005127 44 1 delete
10:13:56 60.370387 29.556122 32 121 1.5245743989944 199.27124023438 44 1 delete
10:13:53 60.370392 29.556158 32 118 1.5150223970413 198.6259765625 44 1 delete
10:13:48 60.370439 29.556204 32 110 1.4450616836548 193.30302429199 44 1 delete
10:13:44 60.370480 29.556252 16 110 1.3108566999435 195.28532409668 44 1 delete
10:13:42 60.370511 29.556265 16 110 1.1957330703735 189.86178588867 44 1 delete
10:13:41 60.370526 29.556271 16 111 1.1564217805862 190.0796661377 44 1 delete
10:13:37 60.370581 29.556297 16 116 0.98727178573608 188.99514770508 44 1 delete